Time;durP1;ratioP1;P1;durP2;ratioP2;P2;SDS_P1;SDS_P2;PMS_P1;PMS_P2;Temp;Humidity;BMP_temperature;BMP_pressure;BME280_temperature;BME280_humidity;BME280_pressure;Samples;Min_cycle;Max_cycle;Signal;HPM_P1;HPM_P2
2023/08/28 00:01:10;;;;;;;3.50;3.20;;;13.00;99.90;;;;;;5053061;28;20459;-62
2023/08/28 00:03:36;;;;;;;3.63;3.10;;;13.00;99.90;;;;;;5053597;28;20444;-63
2023/08/28 00:06:03;;;;;;;4.30;2.97;;;13.00;99.90;;;;;;5053714;28;20436;-62
2023/08/28 00:08:31;;;;;;;3.33;3.00;;;13.00;99.90;;;;;;5054172;28;20444;-62
2023/08/28 00:10:58;;;;;;;4.57;3.57;;;13.00;99.90;;;;;;5053278;28;20478;-62
2023/08/28 00:13:25;;;;;;;3.40;3.10;;;12.90;99.90;;;;;;5053109;28;20956;-63
2023/08/28 00:15:52;;;;;;;4.93;4.50;;;12.90;99.90;;;;;;5053302;28;20444;-62
2023/08/28 00:18:19;;;;;;;5.50;4.10;;;12.90;99.90;;;;;;5053200;28;20894;-63
2023/08/28 00:20:46;;;;;;;4.93;4.10;;;12.90;99.90;;;;;;5053208;28;20467;-62
2023/08/28 00:23:13;;;;;;;4.13;3.63;;;12.80;99.90;;;;;;5053841;28;20440;-63
2023/08/28 00:25:41;;;;;;;4.40;4.00;;;12.90;99.90;;;;;;5053564;28;20439;-63
2023/08/28 00:28:08;;;;;;;4.27;3.87;;;12.80;99.90;;;;;;5056509;28;20439;-63
2023/08/28 00:30:34;;;;;;;4.20;3.70;;;12.80;99.90;;;;;;5057686;28;20496;-62
2023/08/28 00:33:02;;;;;;;4.77;4.27;;;12.80;99.90;;;;;;5057137;28;20447;-63
2023/08/28 00:35:28;;;;;;;4.67;4.00;;;12.80;99.90;;;;;;5057254;28;20443;-63
2023/08/28 00:37:55;;;;;;;4.50;4.10;;;12.80;99.90;;;;;;5056668;28;20490;-62
2023/08/28 00:40:22;;;;;;;5.90;5.40;;;12.80;99.90;;;;;;5056617;28;20963;-64
2023/08/28 00:42:50;;;;;;;5.30;4.80;;;12.70;99.90;;;;;;5056564;28;20456;-62
2023/08/28 00:45:17;;;;;;;6.73;5.50;;;12.70;99.90;;;;;;5056921;28;20447;-63
2023/08/28 00:47:46;;;;;;;4.93;4.33;;;12.70;99.90;;;;;;5056949;28;20435;-63
2023/08/28 00:50:13;;;;;;;5.23;4.73;;;12.70;99.90;;;;;;5056722;28;20451;-62
2023/08/28 00:52:40;;;;;;;4.80;4.33;;;12.70;99.90;;;;;;5056504;28;20452;-63
2023/08/28 00:55:07;;;;;;;8.70;5.90;;;12.60;99.90;;;;;;5056600;28;20444;-63
2023/08/28 00:57:35;;;;;;;5.63;4.93;;;12.60;99.90;;;;;;5056457;28;20471;-63
2023/08/28 01:00:06;;;;;;;7.00;5.10;;;12.60;99.90;;;;;;5056540;28;20447;-63
2023/08/28 01:02:33;;;;;;;6.50;4.80;;;12.60;99.90;;;;;;5056852;28;20428;-63
2023/08/28 01:05:00;;;;;;;5.77;4.60;;;12.60;99.90;;;;;;5056100;28;20455;-63
2023/08/28 01:07:34;;;;;;;5.60;5.10;;;12.60;99.90;;;;;;5056341;28;20436;-63
2023/08/28 01:10:06;;;;;;;6.37;5.20;;;12.60;99.90;;;;;;5056623;28;20420;-63
2023/08/28 01:12:43;;;;;;;5.80;5.03;;;12.70;99.90;;;;;;5056464;28;20463;-63
2023/08/28 01:15:16;;;;;;;6.80;5.67;;;12.80;99.90;;;;;;5056561;28;20424;-62
2023/08/28 01:17:44;;;;;;;6.90;6.20;;;12.80;99.90;;;;;;5056319;28;20818;-63
2023/08/28 01:20:13;;;;;;;6.17;5.57;;;12.90;99.90;;;;;;5056219;28;20440;-63
2023/08/28 01:22:46;;;;;;;5.63;5.13;;;13.00;99.90;;;;;;5055861;28;20554;-63
2023/08/28 01:25:16;;;;;;;6.30;5.70;;;13.00;99.90;;;;;;5056037;28;20796;-62
2023/08/28 01:27:43;;;;;;;6.40;5.80;;;12.90;99.90;;;;;;5055976;28;20424;-63
2023/08/28 01:30:12;;;;;;;5.60;4.80;;;12.90;99.90;;;;;;5056419;28;20439;-62
2023/08/28 01:32:39;;;;;;;6.87;6.27;;;12.90;99.90;;;;;;5056204;28;20448;-63
2023/08/28 01:35:10;;;;;;;6.53;5.90;;;12.90;99.90;;;;;;5056467;28;20899;-63
2023/08/28 01:37:46;;;;;;;6.10;5.53;;;12.90;99.90;;;;;;5056303;28;20459;-63
2023/08/28 01:40:16;;;;;;;7.30;6.50;;;12.90;99.90;;;;;;5056320;28;20432;-63
2023/08/28 01:42:46;;;;;;;7.00;6.30;;;12.90;99.90;;;;;;5056788;28;20424;-62
2023/08/28 01:45:13;;;;;;;7.10;6.27;;;12.90;99.90;;;;;;5057137;28;20448;-62
2023/08/28 01:47:40;;;;;;;8.97;6.50;;;12.80;99.90;;;;;;5056690;28;20450;-63
2023/08/28 01:50:08;;;;;;;7.20;6.60;;;12.80;99.90;;;;;;5056374;28;20447;-63
2023/08/28 01:52:35;;;;;;;9.37;5.73;;;12.70;99.90;;;;;;5058413;28;20941;-62
2023/08/28 01:55:02;;;;;;;8.30;6.60;;;12.70;99.90;;;;;;5055942;28;20816;-64
2023/08/28 01:57:30;;;;;;;6.93;6.33;;;12.70;99.90;;;;;;5055495;28;20479;-63
2023/08/28 01:59:56;;;;;;;7.80;6.50;;;12.70;99.90;;;;;;5055360;28;20451;-64
2023/08/28 02:02:23;;;;;;;7.40;6.80;;;12.60;99.90;;;;;;5054990;28;20472;-62
2023/08/28 02:04:50;;;;;;;6.97;6.33;;;12.60;99.90;;;;;;5055243;28;20436;-63
2023/08/28 02:07:17;;;;;;;8.03;7.33;;;12.50;99.90;;;;;;5055293;28;20440;-63
2023/08/28 02:09:43;;;;;;;8.50;7.30;;;12.50;99.90;;;;;;5055114;28;20444;-63
2023/08/28 02:12:10;;;;;;;7.00;6.30;;;12.50;99.90;;;;;;5092969;22;20487;-64
2023/08/28 02:14:38;;;;;;;6.87;6.23;;;12.50;99.90;;;;;;5075037;28;20446;-64
2023/08/28 02:17:05;;;;;;;7.73;6.90;;;12.50;99.90;;;;;;5074950;28;20484;-63
2023/08/28 02:19:32;;;;;;;7.97;6.80;;;12.40;99.90;;;;;;5075177;28;20443;-64
2023/08/28 02:21:58;;;;;;;6.50;5.90;;;12.40;99.90;;;;;;5075210;28;20463;-64
2023/08/28 02:24:26;;;;;;;7.67;6.90;;;12.40;99.90;;;;;;5075291;28;20808;-64
2023/08/28 02:26:52;;;;;;;6.90;6.20;;;12.40;99.90;;;;;;5074752;28;20546;-64
2023/08/28 02:29:19;;;;;;;8.70;7.17;;;12.40;99.90;;;;;;5074951;28;20450;-64
2023/08/28 02:31:47;;;;;;;7.63;6.83;;;12.30;99.90;;;;;;5075014;28;20463;-64
2023/08/28 02:34:14;;;;;;;8.27;7.47;;;12.30;99.90;;;;;;5074582;28;20447;-63
2023/08/28 02:36:40;;;;;;;6.90;6.20;;;12.30;99.90;;;;;;5075077;28;20439;-64
2023/08/28 02:39:07;;;;;;;8.30;7.50;;;12.30;99.90;;;;;;5074932;28;20490;-63
2023/08/28 02:41:34;;;;;;;8.97;8.07;;;12.20;99.90;;;;;;5074664;28;20459;-64
2023/08/28 02:44:01;;;;;;;7.87;7.07;;;12.20;99.90;;;;;;5074600;28;20435;-64
2023/08/28 02:46:27;;;;;;;9.23;8.33;;;12.20;99.90;;;;;;5075376;28;20789;-64
2023/08/28 02:48:55;;;;;;;8.97;8.10;;;12.20;99.90;;;;;;5074466;28;20435;-63
2023/08/28 02:51:22;;;;;;;8.63;7.73;;;12.20;99.90;;;;;;5073267;28;20463;-63
2023/08/28 02:53:49;;;;;;;9.40;7.70;;;12.10;99.90;;;;;;5074460;28;20439;-63
2023/08/28 02:56:26;;;;;;;11.93;8.17;;;12.20;99.90;;;;;;5074209;28;20446;-63
2023/08/28 02:58:53;;;;;;;9.47;7.80;;;12.10;99.90;;;;;;5073868;28;20477;-63
2023/08/28 03:01:20;;;;;;;7.30;6.60;;;12.10;99.90;;;;;;5074125;28;20784;-63
2023/08/28 03:03:47;;;;;;;8.00;7.17;;;12.10;99.90;;;;;;5074720;28;20469;-63
2023/08/28 03:06:16;;;;;;;9.50;8.43;;;12.10;99.90;;;;;;5073977;28;20933;-63
2023/08/28 03:08:42;;;;;;;8.60;7.80;;;12.00;99.90;;;;;;5074364;28;20446;-63
2023/08/28 03:11:09;;;;;;;11.10;8.80;;;12.00;99.90;;;;;;5074373;28;20482;-63
2023/08/28 03:13:36;;;;;;;9.00;7.83;;;12.00;99.90;;;;;;5074376;28;20439;-63
2023/08/28 03:16:03;;;;;;;8.73;7.80;;;12.00;99.90;;;;;;5074666;28;20439;-64
2023/08/28 03:18:30;;;;;;;9.50;8.50;;;12.10;99.90;;;;;;5074568;28;20479;-63
2023/08/28 03:20:57;;;;;;;8.63;7.80;;;12.00;99.90;;;;;;5074146;28;20845;-64
2023/08/28 03:23:25;;;;;;;9.60;8.57;;;12.00;99.90;;;;;;5073933;28;20443;-63
2023/08/28 03:25:51;;;;;;;8.87;7.97;;;12.10;99.90;;;;;;5073655;28;20439;-63
2023/08/28 03:28:18;;;;;;;9.83;8.50;;;12.10;99.90;;;;;;5073705;28;20450;-64
2023/08/28 03:30:45;;;;;;;8.90;7.80;;;12.10;99.90;;;;;;5074047;28;20466;-64
2023/08/28 03:33:12;;;;;;;9.27;8.10;;;12.00;99.90;;;;;;5073551;28;20458;-64
2023/08/28 03:35:38;;;;;;;9.33;8.10;;;12.00;99.90;;;;;;5073185;28;20975;-66
2023/08/28 03:38:05;;;;;;;9.87;8.10;;;12.00;99.90;;;;;;5073568;28;20482;-64
2023/08/28 03:40:35;;;;;;;10.63;9.53;;;12.00;99.90;;;;;;5073217;28;20529;-64
2023/08/28 03:43:03;;;;;;;9.47;8.57;;;12.00;99.90;;;;;;5073419;28;20497;-63
2023/08/28 03:45:30;;;;;;;10.73;9.17;;;12.00;99.90;;;;;;5073395;28;20443;-63
2023/08/28 03:47:57;;;;;;;11.67;8.27;;;12.00;99.90;;;;;;5073252;28;20443;-64
2023/08/28 03:50:28;;;;;;;9.53;7.50;;;12.00;99.90;;;;;;5073289;28;20442;-64
2023/08/28 03:52:55;;;;;;;10.43;9.30;;;12.00;99.90;;;;;;5073245;28;20427;-64
2023/08/28 03:55:22;;;;;;;9.60;8.60;;;11.90;99.90;;;;;;5072922;28;20929;-63
2023/08/28 03:57:50;;;;;;;10.20;8.97;;;11.90;99.90;;;;;;5073027;28;20474;-64
2023/08/28 04:00:18;;;;;;;11.93;10.73;;;11.90;99.90;;;;;;5073047;28;20461;-65
2023/08/28 04:02:46;;;;;;;12.97;9.70;;;11.90;99.90;;;;;;5072738;28;20467;-66
2023/08/28 04:05:12;;;;;;;12.97;10.23;;;11.80;99.90;;;;;;5072645;28;20439;-64
2023/08/28 04:07:39;;;;;;;10.43;9.30;;;11.80;99.90;;;;;;5072948;28;20447;-64
2023/08/28 04:12:08;;;;;;;11.73;10.50;;;11.80;99.90;;;;;;5091115;28;20561;-65
2023/08/28 04:14:35;;;;;;;11.60;10.13;;;11.80;99.90;;;;;;5090596;28;20445;-64
2023/08/28 04:17:02;;;;;;;12.20;10.90;;;11.80;99.90;;;;;;5090585;28;20434;-66
2023/08/28 04:19:28;;;;;;;12.23;10.73;;;11.80;99.90;;;;;;5090737;28;20439;-65
2023/08/28 04:21:55;;;;;;;16.33;12.17;;;11.80;99.90;;;;;;5090474;28;20455;-64
2023/08/28 04:24:22;;;;;;;11.73;10.27;;;11.80;99.90;;;;;;5090885;28;20443;-65
2023/08/28 04:26:49;;;;;;;13.47;11.53;;;11.80;99.90;;;;;;5090711;28;20446;-65
2023/08/28 04:29:17;;;;;;;14.27;11.60;;;11.80;99.90;;;;;;5090612;28;20449;-65
2023/08/28 04:31:43;;;;;;;11.80;10.60;;;11.80;99.90;;;;;;5090278;28;20490;-64
2023/08/28 04:34:10;;;;;;;13.23;11.13;;;11.80;99.90;;;;;;5090009;28;20957;-64
2023/08/28 04:36:37;;;;;;;11.10;9.90;;;11.80;99.90;;;;;;5090090;28;20529;-65
2023/08/28 04:39:04;;;;;;;13.17;11.43;;;11.90;99.90;;;;;;5090165;28;20445;-65
2023/08/28 04:41:30;;;;;;;14.93;11.30;;;11.90;99.90;;;;;;5090091;28;20462;-64
2023/08/28 04:43:57;;;;;;;12.83;10.87;;;12.00;99.90;;;;;;5090576;28;20438;-66
2023/08/28 04:46:26;;;;;;;14.63;11.73;;;12.10;99.90;;;;;;5089844;28;20442;-65
2023/08/28 04:48:52;;;;;;;11.87;10.60;;;12.20;99.90;;;;;;5089747;28;20449;-65
2023/08/28 04:51:19;;;;;;;11.83;10.33;;;12.30;99.90;;;;;;5089554;28;20488;-65
2023/08/28 04:53:46;;;;;;;12.27;8.87;;;12.50;99.90;;;;;;5089479;28;20550;-65
2023/08/28 04:56:13;;;;;;;10.87;9.57;;;12.60;99.90;;;;;;5089742;28;20438;-66
2023/08/28 04:58:40;;;;;;;11.00;9.90;;;12.70;99.90;;;;;;5089425;28;20442;-66
2023/08/28 05:01:07;;;;;;;9.83;8.83;;;12.80;99.90;;;;;;5088963;28;20461;-66
2023/08/28 05:03:35;;;;;;;11.40;8.67;;;12.90;99.90;;;;;;5089723;28;20446;-66
2023/08/28 05:06:02;;;;;;;9.23;8.33;;;13.00;99.90;;;;;;5089739;28;20446;-66
2023/08/28 05:08:28;;;;;;;11.00;8.67;;;13.10;99.90;;;;;;5089744;28;20439;-66
2023/08/28 05:10:56;;;;;;;11.80;9.47;;;13.10;99.90;;;;;;5090110;28;20486;-65
2023/08/28 05:13:23;;;;;;;12.70;9.50;;;13.20;99.90;;;;;;5090727;28;20809;-66
2023/08/28 05:15:49;;;;;;;9.03;8.13;;;13.30;99.90;;;;;;5090201;28;20439;-67
2023/08/28 05:18:16;;;;;;;9.23;8.07;;;13.40;99.90;;;;;;5088970;28;20445;-65
2023/08/28 05:20:44;;;;;;;11.50;9.20;;;13.50;99.90;;;;;;5089236;28;20430;-66
2023/08/28 05:23:11;;;;;;;8.77;7.20;;;13.60;99.90;;;;;;5077026;28;20892;-66
2023/08/28 05:25:37;;;;;;;9.00;8.10;;;13.70;99.90;;;;;;5075319;28;20442;-66
2023/08/28 05:28:05;;;;;;;12.57;8.90;;;13.70;99.90;;;;;;5075921;28;20442;-66
2023/08/28 05:30:32;;;;;;;7.60;6.80;;;13.70;99.90;;;;;;5075253;28;21106;-66
2023/08/28 05:32:58;;;;;;;10.97;8.10;;;13.70;99.90;;;;;;5075453;28;20443;-66
2023/08/28 05:35:25;;;;;;;11.93;9.63;;;13.60;99.90;;;;;;5075755;28;20438;-66
2023/08/28 05:37:53;;;;;;;10.53;8.93;;;13.60;99.90;;;;;;5076216;28;20443;-66
2023/08/28 05:40:20;;;;;;;10.20;8.17;;;13.60;99.90;;;;;;5075775;28;20447;-64
2023/08/28 05:42:47;;;;;;;9.33;8.20;;;13.70;99.90;;;;;;5075243;28;20828;-66
2023/08/28 05:45:13;;;;;;;10.67;8.43;;;13.70;99.90;;;;;;5075305;28;20450;-65
2023/08/28 05:47:41;;;;;;;10.53;7.60;;;13.70;99.90;;;;;;5075697;28;20435;-66
2023/08/28 05:50:09;;;;;;;9.07;8.27;;;13.80;99.90;;;;;;5074891;28;20454;-65
2023/08/28 05:52:36;;;;;;;8.40;7.10;;;13.90;99.90;;;;;;5075555;28;20459;-61
2023/08/28 05:55:05;;;;;;;9.40;7.53;;;13.90;99.90;;;;;;5075604;28;20533;-61
2023/08/28 05:57:32;;;;;;;8.97;8.07;;;14.00;99.90;;;;;;5076451;28;20458;-62
2023/08/28 05:59:59;;;;;;;8.53;7.70;;;14.10;99.90;;;;;;5074775;28;20799;-63
2023/08/28 06:02:25;;;;;;;16.90;7.80;;;14.10;99.90;;;;;;5074868;28;20470;-63
2023/08/28 06:04:52;;;;;;;8.80;7.20;;;14.20;99.90;;;;;;5075296;28;20431;-64
2023/08/28 06:07:19;;;;;;;9.03;7.23;;;14.30;99.90;;;;;;5075376;28;20449;-63
2023/08/28 06:09:46;;;;;;;8.17;7.17;;;14.40;99.90;;;;;;5075525;28;20431;-63
2023/08/28 06:12:14;;;;;;;9.47;8.50;;;14.40;99.90;;;;;;5075318;28;20482;-64
2023/08/28 06:14:41;;;;;;;9.80;8.37;;;14.50;99.90;;;;;;5076875;28;20455;-63
2023/08/28 06:17:07;;;;;;;7.73;7.03;;;14.50;99.90;;;;;;5074481;28;20447;-63
2023/08/28 06:19:34;;;;;;;8.03;7.20;;;14.70;99.90;;;;;;5075781;28;20439;-62
2023/08/28 06:22:04;;;;;;;8.97;7.00;;;14.80;99.90;;;;;;5076529;28;20455;-62
2023/08/28 06:24:31;;;;;;;8.50;6.63;;;14.90;99.90;;;;;;5075797;28;20424;-63
2023/08/28 06:26:58;;;;;;;8.83;5.60;;;15.00;99.90;;;;;;5076017;28;20921;-63
2023/08/28 06:29:26;;;;;;;6.27;5.73;;;15.10;99.90;;;;;;5075004;28;20533;-63
2023/08/28 06:31:53;;;;;;;10.53;6.60;;;15.20;99.90;;;;;;5074603;28;20510;-63
2023/08/28 06:34:20;;;;;;;8.13;6.50;;;15.30;99.90;;;;;;5073721;28;20450;-63
2023/08/28 06:36:49;;;;;;;8.93;6.00;;;15.40;99.90;;;;;;5074645;28;20518;-63
2023/08/28 06:39:16;;;;;;;6.80;6.13;;;15.50;99.90;;;;;;5074759;28;20439;-61
2023/08/28 06:41:43;;;;;;;9.73;8.83;;;15.50;99.90;;;;;;5074674;28;20802;-63
2023/08/28 06:44:10;;;;;;;10.27;5.97;;;15.60;99.90;;;;;;5074247;28;20443;-63
2023/08/28 06:46:38;;;;;;;7.90;7.10;;;15.60;99.90;;;;;;5074069;28;20796;-63
2023/08/28 06:49:05;;;;;;;7.80;6.80;;;15.60;99.90;;;;;;5074166;28;20948;-63
2023/08/28 06:51:31;;;;;;;8.30;6.90;;;15.70;99.90;;;;;;5074501;28;20478;-62
2023/08/28 06:53:58;;;;;;;8.40;7.30;;;15.70;99.90;;;;;;5074264;28;20439;-63
2023/08/28 06:56:25;;;;;;;7.37;6.67;;;15.70;99.90;;;;;;5074410;28;20439;-62
2023/08/28 06:58:51;;;;;;;13.47;6.73;;;15.70;99.90;;;;;;5074164;28;20435;-63
2023/08/28 07:01:19;;;;;;;8.60;7.80;;;15.70;99.90;;;;;;5073952;28;20456;-63
2023/08/28 07:03:47;;;;;;;9.90;7.83;;;15.80;99.90;;;;;;5075141;28;20447;-63
2023/08/28 07:06:13;;;;;;;9.37;8.40;;;15.80;99.90;;;;;;5076199;28;20455;-63
2023/08/28 07:08:40;;;;;;;11.70;7.70;;;15.80;99.90;;;;;;5078375;28;20450;-63
2023/08/28 07:11:07;;;;;;;10.80;8.53;;;15.90;99.90;;;;;;5075590;28;20494;-63
2023/08/28 07:13:34;;;;;;;8.27;7.40;;;15.90;99.90;;;;;;5074081;28;20843;-63
2023/08/28 07:16:01;;;;;;;10.30;7.03;;;16.00;99.90;;;;;;5074192;28;20439;-63
2023/08/28 07:18:29;;;;;;;7.33;6.73;;;16.10;99.90;;;;;;5073945;28;20434;-65
2023/08/28 07:20:57;;;;;;;10.50;8.13;;;16.10;99.90;;;;;;5073923;28;20498;-63
2023/08/28 07:23:25;;;;;;;8.50;7.60;;;16.40;99.90;;;;;;5073488;28;20439;-62
2023/08/28 07:25:52;;;;;;;9.30;8.37;;;16.60;99.90;;;;;;5073839;28;20439;-63
2023/08/28 07:28:19;;;;;;;13.20;8.17;;;16.60;99.90;;;;;;5073929;28;20443;-61
2023/08/28 07:30:46;;;;;;;7.67;6.97;;;16.60;99.90;;;;;;5073285;28;20525;-64
2023/08/28 07:33:13;;;;;;;7.57;6.87;;;16.60;99.90;;;;;;5073790;28;20447;-63
2023/08/28 07:35:43;;;;;;;9.13;7.40;;;16.60;99.90;;;;;;5073493;28;20443;-63
2023/08/28 07:38:13;;;;;;;8.23;5.97;;;16.80;99.90;;;;;;5073854;28;20443;-62
2023/08/28 07:40:40;;;;;;;7.40;6.10;;;16.90;99.90;;;;;;5073487;28;20949;-64
2023/08/28 07:43:07;;;;;;;6.10;5.50;;;17.00;99.90;;;;;;5073690;28;20435;-62
2023/08/28 07:45:34;;;;;;;8.00;5.40;;;17.00;99.90;;;;;;5074128;28;20436;-65
2023/08/28 07:48:01;;;;;;;9.03;6.23;;;17.00;99.90;;;;;;5074930;28;20443;-63
2023/08/28 07:50:30;;;;;;;6.73;6.10;;;17.00;99.90;;;;;;5074469;28;20435;-63
2023/08/28 07:52:56;;;;;;;7.17;6.33;;;17.00;99.90;;;;;;5074144;28;20812;-63
2023/08/28 07:55:24;;;;;;;6.90;6.20;;;17.00;99.90;;;;;;5075445;28;20439;-63
2023/08/28 07:57:52;;;;;;;7.60;6.90;;;17.10;99.90;;;;;;5073264;28;20936;-64
2023/08/28 08:00:21;;;;;;;7.73;6.93;;;17.20;99.90;;;;;;5073219;28;20450;-63
2023/08/28 08:02:48;;;;;;;6.20;5.53;;;17.20;99.90;;;;;;5074217;28;20455;-63
2023/08/28 08:05:15;;;;;;;7.27;5.63;;;17.20;99.90;;;;;;5073364;28;20439;-64
2023/08/28 08:07:42;;;;;;;8.00;5.83;;;17.20;99.90;;;;;;5073963;28;20465;-65
2023/08/28 08:10:10;;;;;;;8.53;6.00;;;17.30;99.90;;;;;;5073573;28;20465;-65
2023/08/28 08:12:39;;;;;;;7.47;5.90;;;17.30;99.90;;;;;;5075267;28;20483;-64
2023/08/28 08:15:07;;;;;;;6.07;5.47;;;17.30;99.90;;;;;;5074752;28;20933;-63
2023/08/28 08:17:35;;;;;;;6.13;5.40;;;17.40;99.90;;;;;;5073993;28;20439;-64
2023/08/28 08:20:01;;;;;;;8.13;4.87;;;17.60;99.90;;;;;;5073683;28;20482;-65
2023/08/28 08:22:28;;;;;;;6.03;4.30;;;17.70;99.90;;;;;;5074223;28;20464;-61
2023/08/28 08:24:55;;;;;;;4.60;4.03;;;17.70;99.90;;;;;;5075115;28;20439;-64
2023/08/28 08:27:22;;;;;;;5.40;4.60;;;17.70;99.90;;;;;;5075812;28;20461;-63
2023/08/28 08:29:50;;;;;;;4.87;4.37;;;17.80;99.90;;;;;;5076482;28;20438;-63
2023/08/28 08:32:17;;;;;;;4.80;4.40;;;17.90;99.90;;;;;;5073534;28;20494;-64
2023/08/28 08:34:44;;;;;;;6.30;4.50;;;18.00;99.90;;;;;;5074079;28;20924;-63
2023/08/28 08:37:11;;;;;;;3.77;3.37;;;18.00;99.90;;;;;;5074265;28;20439;-65
2023/08/28 08:39:38;;;;;;;5.23;3.60;;;18.00;99.90;;;;;;5073271;28;20471;-64
2023/08/28 08:42:05;;;;;;;6.00;4.50;;;18.00;99.90;;;;;;5073847;28;20459;-65
2023/08/28 08:44:33;;;;;;;5.03;3.60;;;18.00;99.90;;;;;;5074540;28;20439;-65
2023/08/28 08:47:03;;;;;;;4.50;3.40;;;18.00;99.90;;;;;;5073574;28;20458;-64
2023/08/28 08:49:31;;;;;;;3.97;3.47;;;18.00;99.90;;;;;;5073616;28;20435;-65
2023/08/28 08:52:03;;;;;;;4.40;4.00;;;18.10;99.90;;;;;;5074142;28;20491;-64
2023/08/28 08:54:36;;;;;;;4.80;4.00;;;18.20;99.90;;;;;;5074411;28;20434;-64
2023/08/28 08:57:08;;;;;;;5.63;4.33;;;18.30;99.90;;;;;;5074722;28;20435;-64
2023/08/28 08:59:36;;;;;;;6.00;4.47;;;18.30;99.80;;;;;;5078411;28;20419;-63
2023/08/28 09:02:04;;;;;;;4.03;3.27;;;18.50;99.60;;;;;;5078906;28;20455;-64
2023/08/28 09:04:32;;;;;;;5.27;4.07;;;18.60;98.90;;;;;;5080608;28;20802;-64
2023/08/28 09:07:00;;;;;;;4.60;3.53;;;18.70;98.40;;;;;;5078219;28;20439;-65
2023/08/28 09:09:27;;;;;;;3.37;2.70;;;18.80;97.70;;;;;;5077185;28;20435;-64
2023/08/28 09:11:54;;;;;;;7.93;3.97;;;18.90;97.00;;;;;;5075763;28;20490;-64
2023/08/28 09:14:20;;;;;;;4.60;4.20;;;18.90;96.10;;;;;;5076197;28;20438;-63
2023/08/28 09:16:47;;;;;;;6.23;4.80;;;18.90;95.70;;;;;;5078948;28;20962;-63
2023/08/28 09:19:15;;;;;;;4.17;3.77;;;18.90;95.40;;;;;;5077096;28;20446;-65
2023/08/28 09:21:46;;;;;;;5.70;5.20;;;18.90;95.40;;;;;;5076910;28;20451;-63
2023/08/28 09:24:13;;;;;;;4.47;4.10;;;18.90;95.20;;;;;;5077781;28;20433;-64
2023/08/28 09:26:38;;;;;;;4.30;3.80;;;19.00;94.90;;;;;;5077666;28;20820;-64
2023/08/28 09:29:07;;;;;;;6.57;4.10;;;19.00;94.60;;;;;;5076322;28;20443;-64
2023/08/28 09:31:35;;;;;;;3.83;3.53;;;19.10;94.30;;;;;;5077725;28;20233;-65
2023/08/28 09:34:03;;;;;;;5.93;4.47;;;19.30;94.10;;;;;;5076480;28;20933;-64
2023/08/28 09:36:33;;;;;;;3.67;3.37;;;19.50;93.50;;;;;;5077290;28;20489;-64
2023/08/28 09:39:03;;;;;;;5.53;4.07;;;19.60;92.30;;;;;;5077331;28;20443;-64
2023/08/28 09:41:39;;;;;;;4.60;4.00;;;19.70;92.10;;;;;;5076732;28;20494;-64
2023/08/28 09:44:06;;;;;;;3.97;3.53;;;19.70;91.40;;;;;;5077633;28;20435;-64
2023/08/28 09:46:35;;;;;;;4.30;3.40;;;19.70;91.30;;;;;;5076514;28;20435;-64
2023/08/28 09:49:02;;;;;;;3.50;3.17;;;19.80;91.20;;;;;;5075635;28;20443;-64
2023/08/28 09:51:41;;;;;;;4.70;4.13;;;19.80;90.60;;;;;;5075178;28;20478;-64
2023/08/28 09:54:08;;;;;;;4.53;2.77;;;19.90;90.30;;;;;;5075226;28;20420;-63
2023/08/28 09:56:35;;;;;;;5.40;3.40;;;19.90;88.70;;;;;;5074908;28;20537;-65
2023/08/28 09:59:03;;;;;;;4.63;3.63;;;20.00;88.10;;;;;;5075408;28;20451;-63
2023/08/28 10:01:32;;;;;;;3.30;3.00;;;20.10;87.40;;;;;;5076199;28;20466;-64
2023/08/28 10:04:00;;;;;;;4.00;3.53;;;20.20;87.70;;;;;;5074858;28;20439;-66
2023/08/28 10:06:28;;;;;;;4.57;3.23;;;20.30;85.40;;;;;;5075211;28;20443;-65
2023/08/28 10:08:59;;;;;;;3.30;2.70;;;20.40;84.10;;;;;;5074293;28;20455;-64
2023/08/28 10:11:33;;;;;;;3.73;2.80;;;20.50;83.10;;;;;;5074248;28;20475;-64
2023/08/28 10:14:01;;;;;;;4.70;4.20;;;20.60;82.30;;;;;;5074793;28;20419;-64
2023/08/28 10:16:34;;;;;;;2.90;2.60;;;20.80;80.90;;;;;;5075046;28;20431;-65
2023/08/28 10:19:10;;;;;;;5.60;4.20;;;20.80;79.50;;;;;;5075565;28;20438;-63
2023/08/28 10:21:37;;;;;;;5.93;3.13;;;20.80;78.60;;;;;;5074310;28;20466;-65
2023/08/28 10:24:08;;;;;;;5.00;3.83;;;20.80;78.40;;;;;;5074701;28;20807;-67
2023/08/28 10:26:35;;;;;;;3.20;2.90;;;20.60;77.90;;;;;;5074738;28;20434;-65
2023/08/28 10:29:03;;;;;;;2.80;2.10;;;20.50;78.20;;;;;;5074051;28;20451;-65
2023/08/28 10:31:31;;;;;;;5.50;2.60;;;20.40;78.20;;;;;;5074560;28;20500;-64
2023/08/28 10:33:58;;;;;;;2.73;2.00;;;20.20;77.60;;;;;;5074249;28;20474;-65
2023/08/28 10:36:25;;;;;;;3.70;2.27;;;20.10;77.30;;;;;;5074040;28;20529;-65
2023/08/28 10:38:53;;;;;;;2.80;2.27;;;20.10;77.10;;;;;;5074354;28;20447;-64
2023/08/28 10:41:22;;;;;;;2.70;2.23;;;20.10;76.80;;;;;;5074570;28;20458;-64
2023/08/28 10:43:51;;;;;;;3.70;2.33;;;20.10;76.90;;;;;;5074291;28;20446;-65
2023/08/28 10:46:20;;;;;;;4.17;2.53;;;20.20;77.10;;;;;;5074091;28;20811;-65
2023/08/28 10:48:47;;;;;;;4.10;2.10;;;20.40;77.10;;;;;;5073558;28;20952;-64
2023/08/28 10:51:14;;;;;;;3.73;3.20;;;20.50;76.80;;;;;;5074158;28;20462;-64
2023/08/28 10:53:41;;;;;;;2.63;2.43;;;20.60;76.10;;;;;;5073862;28;20483;-62
2023/08/28 10:56:07;;;;;;;2.80;2.33;;;20.60;75.50;;;;;;5073681;28;20551;-61
2023/08/28 10:58:39;;;;;;;3.73;2.50;;;20.60;74.60;;;;;;5073721;28;20444;-62
2023/08/28 11:01:16;;;;;;;3.37;1.90;;;20.50;74.20;;;;;;5073728;28;20463;-62
2023/08/28 11:03:56;;;;;;;3.17;1.97;;;20.40;74.30;;;;;;5073421;28;20434;-61
2023/08/28 11:06:39;;;;;;;3.00;2.17;;;20.40;73.70;;;;;;5073443;28;20519;-61
2023/08/28 11:09:36;;;;;;;2.47;1.90;;;20.50;73.50;;;;;;5073729;28;20435;-63
2023/08/28 11:12:25;;;;;;;3.20;2.30;;;20.70;72.60;;;;;;5073101;28;20477;-62
2023/08/28 11:15:03;;;;;;;2.80;1.87;;;20.80;71.30;;;;;;5073670;28;20450;-62
2023/08/28 11:17:34;;;;;;;2.37;1.47;;;20.80;70.80;;;;;;5073886;28;20569;-63
2023/08/28 11:20:04;;;;;;;2.20;1.70;;;20.80;70.70;;;;;;5072571;28;20530;-63
2023/08/28 11:22:32;;;;;;;2.00;1.80;;;20.90;70.00;;;;;;5073295;28;20470;-62
2023/08/28 11:24:59;;;;;;;2.50;2.00;;;20.90;69.40;;;;;;5073629;28;20435;-62
2023/08/28 11:27:34;;;;;;;3.13;1.70;;;20.90;69.00;;;;;;5072947;28;20929;-65
2023/08/28 11:30:05;;;;;;;4.33;1.80;;;20.80;69.00;;;;;;5073289;28;20442;-64
2023/08/28 11:32:32;;;;;;;2.60;1.50;;;20.90;69.10;;;;;;5073384;28;20483;-63
2023/08/28 11:35:00;;;;;;;1.60;1.50;;;21.00;68.50;;;;;;5073393;28;20450;-63
2023/08/28 11:37:31;;;;;;;1.93;1.17;;;21.10;67.20;;;;;;5073786;28;20948;-63
2023/08/28 11:39:58;;;;;;;2.07;1.77;;;21.00;66.50;;;;;;5073960;28;20441;-63
2023/08/28 11:42:25;;;;;;;2.27;1.57;;;20.80;66.10;;;;;;5073306;28;20965;-61
2023/08/28 11:44:52;;;;;;;3.17;2.23;;;20.70;66.30;;;;;;5074775;28;20443;-64
2023/08/28 11:47:25;;;;;;;2.67;1.77;;;20.80;66.70;;;;;;5074257;28;20431;-62
2023/08/28 11:49:52;;;;;;;3.17;1.90;;;21.10;66.10;;;;;;5074085;28;20807;-63
2023/08/28 11:52:19;;;;;;;3.63;1.17;;;21.60;65.00;;;;;;5072860;28;20481;-63
2023/08/28 11:54:46;;;;;;;1.60;1.30;;;21.90;63.50;;;;;;5073801;28;20435;-64
2023/08/28 11:57:14;;;;;;;2.13;1.23;;;22.10;61.70;;;;;;5073027;28;20454;-64
2023/08/28 11:59:42;;;;;;;1.77;1.40;;;22.30;60.10;;;;;;5072940;28;20482;-65
2023/08/28 12:02:09;;;;;;;2.10;1.30;;;22.50;59.30;;;;;;5072821;28;20975;-64
2023/08/28 12:04:37;;;;;;;1.97;1.77;;;23.00;58.70;;;;;;5072879;28;20463;-65
2023/08/28 12:07:05;;;;;;;1.67;1.57;;;23.60;57.70;;;;;;5073225;28;20443;-65
2023/08/28 12:09:32;;;;;;;2.80;1.40;;;24.30;56.20;;;;;;5072120;28;20505;-64
2023/08/28 12:12:01;;;;;;;3.37;1.67;;;24.90;54.90;;;;;;5072366;28;20470;-64
2023/08/28 12:14:29;;;;;;;1.77;1.57;;;25.10;53.60;;;;;;5073020;28;20482;-64
2023/08/28 12:17:00;;;;;;;2.10;1.50;;;25.10;52.90;;;;;;5073410;28;20447;-64
2023/08/28 12:19:27;;;;;;;1.60;1.20;;;25.10;52.50;;;;;;5073261;28;20443;-63
2023/08/28 12:22:05;;;;;;;3.60;1.20;;;24.90;52.50;;;;;;5073031;28;20458;-63
2023/08/28 12:24:31;;;;;;;1.40;1.00;;;24.80;52.40;;;;;;5072992;28;20422;-63
2023/08/28 12:26:58;;;;;;;2.00;1.23;;;24.40;52.60;;;;;;5072651;28;20940;-64
2023/08/28 12:29:25;;;;;;;2.27;1.10;;;23.80;52.80;;;;;;5073265;28;20801;-63
2023/08/28 12:31:52;;;;;;;1.93;1.30;;;23.40;53.40;;;;;;5072943;28;20996;-64
2023/08/28 12:34:19;;;;;;;1.10;1.00;;;23.20;53.90;;;;;;5077094;28;20479;-65
2023/08/28 12:36:47;;;;;;;1.57;0.90;;;22.90;54.30;;;;;;5077775;28;20442;-64
2023/08/28 12:39:16;;;;;;;2.33;1.00;;;22.70;54.50;;;;;;5077183;28;20443;-65
2023/08/28 12:41:50;;;;;;;1.50;1.40;;;22.60;54.50;;;;;;5076687;28;20462;-63
2023/08/28 12:44:17;;;;;;;2.10;1.00;;;22.40;54.90;;;;;;5077565;28;20420;-64
2023/08/28 12:46:44;;;;;;;2.30;1.40;;;22.50;55.30;;;;;;5076768;28;20821;-66
2023/08/28 12:49:13;;;;;;;3.23;1.20;;;22.40;55.50;;;;;;5076417;28;20435;-65
2023/08/28 12:51:41;;;;;;;1.43;1.30;;;22.30;55.90;;;;;;5076597;28;20808;-64